DEJAA EDTZ-EDNY
Flight info
| Callsign | DEJAA |
|---|---|
| Flight time | 0h 10m |
| Altitude | |
| Route | |
| Aircraft | P28A |
Departure
| Time | 2026-05-05 13:02 |
|---|---|
| Airport | Konstanz Airfield (EDTZ) |
Arrival
| Time | 2026-05-05 13:13 |
|---|---|
| Airport | Bodensee Airport Friedrichshafen (EDNY) |
| Time | Latitude | Longitude | Altitude | Speed | Heading |
|---|---|---|---|---|---|
| 2026-05-05 12:56 | 47.68195 | 9.13646 | 1306 ft | 0 kts | 307° |
| 2026-05-05 12:56 | 47.68199 | 9.13640 | 1315 ft | 4 kts | 323° |
| 2026-05-05 12:56 | 47.68244 | 9.13567 | 1314 ft | 16 kts | 305° |
| 2026-05-05 12:57 | 47.68234 | 9.13494 | 1314 ft | 2 kts | 232° |
| 2026-05-05 12:57 | 47.68236 | 9.13474 | 1315 ft | 0 kts | 51° |
| 2026-05-05 13:00 | 47.68217 | 9.13618 | 1315 ft | 17 kts | 131° |
| 2026-05-05 13:00 | 47.68138 | 9.13817 | 1317 ft | 27 kts | 117° |
| 2026-05-05 13:01 | 47.67927 | 9.14367 | 1317 ft | 17 kts | 117° |
| 2026-05-05 13:01 | 47.67894 | 9.14466 | 1315 ft | 0 kts | 116° |
| 2026-05-05 13:01 | 47.67893 | 9.14469 | 1315 ft | 0 kts | 116° |
| 2026-05-05 13:01 | 47.67900 | 9.14517 | 1315 ft | 12 kts | 39° |
| 2026-05-05 13:02 | 47.67992 | 9.14337 | 1317 ft | 44 kts | 298° |
| 2026-05-05 13:02 | 47.68227 | 9.13776 | 1427 ft | 73 kts | 298° |
| 2026-05-05 13:02 | 47.68511 | 9.13170 | 1711 ft | 72 kts | 298° |
| 2026-05-05 13:02 | 47.68606 | 9.12528 | 1986 ft | 72 kts | 235° |
| 2026-05-05 13:03 | 47.68089 | 9.12485 | 2217 ft | 96 kts | 158° |
| 2026-05-05 13:03 | 47.67701 | 9.13214 | 2728 ft | 77 kts | 123° |
| 2026-05-05 13:03 | 47.67399 | 9.13886 | 3007 ft | 83 kts | 118° |
| 2026-05-05 13:03 | 47.67214 | 9.14859 | 3093 ft | 115 kts | 107° |
| 2026-05-05 13:04 | 47.67023 | 9.16005 | 3497 ft | 105 kts | 105° |
| 2026-05-05 13:04 | 47.66894 | 9.17046 | 3803 ft | 112 kts | 99° |
| 2026-05-05 13:04 | 47.66797 | 9.18208 | 4173 ft | 106 kts | 96° |
| 2026-05-05 13:04 | 47.66785 | 9.19346 | 4320 ft | 127 kts | 95° |
| 2026-05-05 13:05 | 47.66663 | 9.20686 | 4511 ft | 136 kts | 100° |
| 2026-05-05 13:05 | 47.66567 | 9.22146 | 4577 ft | 147 kts | 96° |
| 2026-05-05 13:05 | 47.66473 | 9.23695 | 4642 ft | 154 kts | 98° |
| 2026-05-05 13:05 | 47.66436 | 9.25289 | 4715 ft | 153 kts | 86° |
| 2026-05-05 13:06 | 47.66507 | 9.26328 | 4748 ft | 154 kts | 85° |
| 2026-05-05 13:06 | 47.66602 | 9.27929 | 4703 ft | 155 kts | 86° |
| 2026-05-05 13:06 | 47.66654 | 9.29530 | 4534 ft | 156 kts | 91° |
| 2026-05-05 13:06 | 47.66653 | 9.31115 | 4433 ft | 153 kts | 94° |
| 2026-05-05 13:07 | 47.66598 | 9.32697 | 4416 ft | 146 kts | 83° |
| 2026-05-05 13:07 | 47.66880 | 9.34104 | 4480 ft | 141 kts | 77° |
| 2026-05-05 13:07 | 47.67071 | 9.35453 | 4615 ft | 135 kts | 78° |
| 2026-05-05 13:07 | 47.67476 | 9.36686 | 4342 ft | 133 kts | 52° |
| 2026-05-05 13:08 | 47.68034 | 9.37759 | 4292 ft | 119 kts | 45° |
| 2026-05-05 13:08 | 47.68565 | 9.38704 | 4105 ft | 134 kts | 49° |
| 2026-05-05 13:08 | 47.69210 | 9.39964 | 3822 ft | 164 kts | 52° |
| 2026-05-05 13:08 | 47.69875 | 9.41204 | 3764 ft | 145 kts | 45° |
| 2026-05-05 13:09 | 47.70473 | 9.42303 | 3680 ft | 125 kts | 39° |
| 2026-05-05 13:09 | 47.71189 | 9.42928 | 3330 ft | 109 kts | 8° |
| 2026-05-05 13:09 | 47.71828 | 9.42685 | 3021 ft | 98 kts | 338° |
| 2026-05-05 13:09 | 47.72381 | 9.43190 | 2877 ft | 127 kts | 81° |
| 2026-05-05 13:10 | 47.72073 | 9.44562 | 2635 ft | 146 kts | 122° |
| 2026-05-05 13:10 | 47.71389 | 9.45546 | 2468 ft | 127 kts | 142° |
| 2026-05-05 13:10 | 47.70714 | 9.46457 | 2405 ft | 138 kts | 142° |
| 2026-05-05 13:10 | 47.70036 | 9.47438 | 2669 ft | 137 kts | 126° |
| 2026-05-05 13:11 | 47.69764 | 9.48766 | 2644 ft | 133 kts | 102° |
| 2026-05-05 13:11 | 47.69682 | 9.50119 | 2554 ft | 131 kts | 89° |
| 2026-05-05 13:11 | 47.69716 | 9.51340 | 2489 ft | 107 kts | 98° |
| 2026-05-05 13:11 | 47.69308 | 9.52202 | 2430 ft | 103 kts | 139° |
| 2026-05-05 13:12 | 47.68806 | 9.52947 | 2368 ft | 96 kts | 144° |
| 2026-05-05 13:12 | 47.68246 | 9.53301 | 2119 ft | 88 kts | 189° |
| 2026-05-05 13:12 | 47.67764 | 9.52790 | 1655 ft | 87 kts | 238° |
| 2026-05-05 13:12 | 47.67475 | 9.52037 | 1408 ft | 79 kts | 240° |
| 2026-05-05 13:13 | 47.67249 | 9.51431 | 1359 ft | 56 kts | 236° |
| 2026-05-05 13:13 | 47.67134 | 9.51145 | 1355 ft | 5 kts | 135° |
| 2026-05-05 13:13 | 47.67121 | 9.51242 | 1355 ft | 15 kts | 138° |
| 2026-05-05 13:13 | 47.67085 | 9.51287 | 1353 ft | 2 kts | 141° |
| 2026-05-05 13:14 | 47.67025 | 9.51336 | 1354 ft | 10 kts | 219° |
| 2026-05-05 13:14 | 47.66968 | 9.51199 | 1350 ft | 17 kts | 238° |
| 2026-05-05 13:14 | 47.66907 | 9.51201 | 1352 ft | 11 kts | 150° |
| 2026-05-05 13:14 | 47.66870 | 9.51266 | 1354 ft | 8 kts | 62° |
| 2026-05-05 13:15 | 47.66896 | 9.51324 | 1354 ft | 4 kts | 120° |
| 2026-05-05 13:15 | 47.66891 | 9.51315 | 1354 ft | 0 kts | 330° |
| 2026-05-05 15:24 | 47.66907 | 9.51318 | 1354 ft | 7 kts | 21° |
| 2026-05-05 15:24 | 47.66952 | 9.51387 | 1355 ft | 8 kts | 47° |
| 2026-05-05 15:25 | 47.67001 | 9.51390 | 1355 ft | 10 kts | 322° |
| 2026-05-05 15:25 | 47.67069 | 9.51307 | 1353 ft | 13 kts | 320° |
| 2026-05-05 15:25 | 47.67142 | 9.51216 | 1356 ft | 14 kts | 296° |
| 2026-05-05 15:25 | 47.67097 | 9.51059 | 1353 ft | 39 kts | 240° |
| 2026-05-05 15:26 | 47.66891 | 9.50499 | 1505 ft | 70 kts | 241° |
| 2026-05-05 15:26 | 47.66650 | 9.49810 | 1793 ft | 79 kts | 243° |
| 2026-05-05 15:26 | 47.66447 | 9.49013 | 2069 ft | 90 kts | 252° |
| 2026-05-05 15:26 | 47.66286 | 9.48131 | 2508 ft | 83 kts | 253° |
| 2026-05-05 15:27 | 47.66153 | 9.47326 | 2896 ft | 76 kts | 259° |
| 2026-05-05 15:27 | 47.66103 | 9.46532 | 3219 ft | 79 kts | 266° |
| 2026-05-05 15:27 | 47.65821 | 9.45773 | 3336 ft | 104 kts | 216° |
| 2026-05-05 15:27 | 47.65076 | 9.45411 | 3514 ft | 117 kts | 198° |
| 2026-05-05 15:28 | 47.64223 | 9.45394 | 3653 ft | 130 kts | 179° |
| 2026-05-05 15:28 | 47.63339 | 9.45509 | 3804 ft | 124 kts | 180° |
| 2026-05-05 15:28 | 47.62486 | 9.45688 | 3924 ft | 124 kts | 174° |
| 2026-05-05 15:28 | 47.61911 | 9.45854 | 3971 ft | 126 kts | 174° |
| 2026-05-05 15:29 | 47.60733 | 9.46161 | 4011 ft | 132 kts | 174° |
| 2026-05-05 15:29 | 47.59843 | 9.46420 | 4128 ft | 129 kts | 173° |
| 2026-05-05 15:29 | 47.58960 | 9.46705 | 4204 ft | 131 kts | 174° |
| 2026-05-05 15:29 | 47.58353 | 9.46840 | 4208 ft | 131 kts | 178° |
| 2026-05-05 15:30 | 47.57165 | 9.47061 | 4277 ft | 128 kts | 175° |
| 2026-05-05 15:30 | 47.56565 | 9.47247 | 4264 ft | 133 kts | 172° |
| 2026-05-05 15:30 | 47.55660 | 9.47565 | 4226 ft | 131 kts | 171° |
| 2026-05-05 15:30 | 47.54806 | 9.47879 | 4042 ft | 125 kts | 172° |
| 2026-05-05 15:31 | 47.53961 | 9.48172 | 3883 ft | 130 kts | 170° |
| 2026-05-05 15:31 | 47.53079 | 9.48442 | 3817 ft | 117 kts | 169° |
| 2026-05-05 15:31 | 47.52382 | 9.48827 | 3804 ft | 106 kts | 162° |
| 2026-05-05 15:31 | 47.51700 | 9.49283 | 3663 ft | 111 kts | 159° |
| 2026-05-05 15:32 | 47.51024 | 9.49806 | 3569 ft | 109 kts | 153° |
| 2026-05-05 15:32 | 47.50376 | 9.50390 | 3442 ft | 107 kts | 154° |
| 2026-05-05 15:32 | 47.49762 | 9.50927 | 3150 ft | 102 kts | 153° |
| 2026-05-05 15:32 | 47.49196 | 9.51567 | 2860 ft | 104 kts | 136° |
| 2026-05-05 15:33 | 47.48885 | 9.52505 | 2613 ft | 102 kts | 102° |
| 2026-05-05 15:33 | 47.48765 | 9.53495 | 2229 ft | 94 kts | 97° |
| 2026-05-05 15:33 | 47.48674 | 9.54427 | 1793 ft | 93 kts | 99° |
| 2026-05-05 15:33 | 47.48574 | 9.55365 | 1403 ft | 87 kts | 97° |
| 2026-05-05 15:34 | 47.48491 | 9.56148 | 1316 ft | 65 kts | 99° |
| 2026-05-05 15:34 | 47.48435 | 9.56710 | 1309 ft | 45 kts | 97° |
| 2026-05-05 15:34 | 47.48407 | 9.57030 | 1311 ft | 16 kts | 84° |
| 2026-05-05 15:34 | 47.48437 | 9.57070 | 1311 ft | 1 kts | 177° |
| 2026-05-05 15:35 | 47.48397 | 9.57036 | 1312 ft | 9 kts | 294° |
| 2026-05-05 15:35 | 47.48410 | 9.56960 | 1310 ft | 0 kts | 279° |
| 2026-05-05 15:35 | 47.48425 | 9.56821 | 1309 ft | 43 kts | 278° |
| 2026-05-05 15:35 | 47.48499 | 9.56118 | 1316 ft | 89 kts | 277° |
| 2026-05-05 15:36 | 47.48615 | 9.55261 | 1637 ft | 81 kts | 282° |
| 2026-05-05 15:36 | 47.48759 | 9.54464 | 1957 ft | 77 kts | 287° |
| 2026-05-05 15:36 | 47.49008 | 9.53624 | 2075 ft | 105 kts | 299° |
| 2026-05-05 15:36 | 47.49423 | 9.52692 | 2392 ft | 108 kts | 301° |
| 2026-05-05 15:37 | 47.49858 | 9.51778 | 2724 ft | 108 kts | 304° |
| 2026-05-05 15:37 | 47.50307 | 9.50892 | 3054 ft | 109 kts | 305° |
| 2026-05-05 15:37 | 47.50769 | 9.49982 | 3391 ft | 109 kts | 303° |
| 2026-05-05 15:37 | 47.51256 | 9.49057 | 3618 ft | 121 kts | 307° |
| 2026-05-05 15:38 | 47.51812 | 9.48146 | 3985 ft | 116 kts | 312° |
| 2026-05-05 15:38 | 47.52431 | 9.47372 | 4270 ft | 120 kts | 318° |
| 2026-05-05 15:38 | 47.53145 | 9.46689 | 4475 ft | 124 kts | 327° |
| 2026-05-05 15:38 | 47.53803 | 9.45910 | 4753 ft | 119 kts | 313° |
| 2026-05-05 15:39 | 47.54415 | 9.45041 | 4895 ft | 126 kts | 314° |
| 2026-05-05 15:39 | 47.55047 | 9.44184 | 5135 ft | 121 kts | 312° |
| 2026-05-05 15:39 | 47.55655 | 9.43315 | 5307 ft | 125 kts | 313° |
| 2026-05-05 15:39 | 47.56309 | 9.42434 | 5452 ft | 128 kts | 313° |
| 2026-05-05 15:40 | 47.56972 | 9.41576 | 5653 ft | 127 kts | 316° |
| 2026-05-05 15:40 | 47.57694 | 9.40770 | 5770 ft | 134 kts | 320° |
| 2026-05-05 15:40 | 47.58483 | 9.39979 | 5860 ft | 140 kts | 323° |
| 2026-05-05 15:40 | 47.59337 | 9.39191 | 5817 ft | 144 kts | 325° |
| 2026-05-05 15:41 | 47.60202 | 9.38457 | 5695 ft | 145 kts | 325° |
| 2026-05-05 15:41 | 47.61075 | 9.37687 | 5544 ft | 146 kts | 326° |
| 2026-05-05 15:41 | 47.61938 | 9.36945 | 5550 ft | 140 kts | 326° |
| 2026-05-05 15:41 | 47.62775 | 9.36198 | 5486 ft | 142 kts | 323° |
| 2026-05-05 15:42 | 47.63618 | 9.35427 | 5481 ft | 140 kts | 324° |
| 2026-05-05 15:42 | 47.64424 | 9.34658 | 5586 ft | 136 kts | 320° |
| 2026-05-05 15:42 | 47.65154 | 9.33740 | 5501 ft | 142 kts | 312° |
| 2026-05-05 15:42 | 47.65902 | 9.32742 | 5344 ft | 146 kts | 313° |
| 2026-05-05 15:43 | 47.66628 | 9.31712 | 5247 ft | 142 kts | 311° |
| 2026-05-05 15:43 | 47.67316 | 9.30672 | 5128 ft | 142 kts | 310° |
| 2026-05-05 15:43 | 47.67994 | 9.29591 | 4966 ft | 144 kts | 308° |
| 2026-05-05 15:43 | 47.68665 | 9.28460 | 4539 ft | 148 kts | 307° |
| 2026-05-05 15:44 | 47.69315 | 9.27285 | 4227 ft | 144 kts | 304° |
| 2026-05-05 15:44 | 47.69926 | 9.26150 | 4032 ft | 138 kts | 306° |
| 2026-05-05 15:44 | 47.70392 | 9.24906 | 3699 ft | 140 kts | 284° |
| 2026-05-05 15:44 | 47.70415 | 9.23449 | 3319 ft | 143 kts | 260° |
| 2026-05-05 15:45 | 47.70252 | 9.22035 | 3266 ft | 135 kts | 259° |
| 2026-05-05 15:45 | 47.70066 | 9.20704 | 3233 ft | 133 kts | 252° |
| 2026-05-05 15:45 | 47.69752 | 9.19392 | 3091 ft | 136 kts | 252° |
| 2026-05-05 15:45 | 47.69467 | 9.18052 | 3034 ft | 136 kts | 252° |
| 2026-05-05 15:46 | 47.69224 | 9.16677 | 3091 ft | 137 kts | 256° |
| 2026-05-05 15:46 | 47.68994 | 9.15340 | 3010 ft | 134 kts | 251° |
| 2026-05-05 15:46 | 47.68511 | 9.14174 | 2915 ft | 135 kts | 225° |
| 2026-05-05 15:46 | 47.67719 | 9.13462 | 2831 ft | 134 kts | 207° |
| 2026-05-05 15:47 | 47.66842 | 9.13337 | 2697 ft | 122 kts | 159° |
| 2026-05-05 15:47 | 47.66478 | 9.13949 | 2535 ft | 127 kts | 114° |
| 2026-05-05 15:47 | 47.66649 | 9.15681 | 2332 ft | 124 kts | 72° |
| 2026-05-05 15:47 | 47.67187 | 9.16485 | 2235 ft | 104 kts | 351° |
| 2026-05-05 15:48 | 47.67546 | 9.15823 | 2077 ft | 90 kts | 278° |
| 2026-05-05 15:48 | 47.67785 | 9.14944 | 1683 ft | 92 kts | 295° |
| 2026-05-05 15:48 | 47.68085 | 9.14103 | 1329 ft | 78 kts | 296° |
| 2026-05-05 15:48 | 47.68299 | 9.13544 | 1313 ft | 52 kts | 289° |
| 2026-05-05 15:49 | 47.68292 | 9.13395 | 1312 ft | 7 kts | 96° |
| 2026-05-05 15:49 | 47.68274 | 9.13456 | 1311 ft | 6 kts | 187° |
| 2026-05-05 15:49 | 47.68262 | 9.13445 | 1312 ft | 1 kts | 216° |
| 2026-05-05 15:49 | 47.68258 | 9.13443 | 1312 ft | 4 kts | 183° |
| 2026-05-05 15:50 | 47.68237 | 9.13475 | 1313 ft | 0 kts | 44° |
| 2026-05-05 15:54 | 47.68260 | 9.13536 | 1310 ft | 9 kts | 89° |
| 2026-05-05 15:55 | 47.68222 | 9.13633 | 1312 ft | 17 kts | 122° |
| 2026-05-05 15:55 | 47.68137 | 9.13843 | 1315 ft | 23 kts | 122° |
| 2026-05-05 15:55 | 47.68081 | 9.13976 | 1317 ft | 10 kts | 139° |
| 2026-05-05 15:56 | 47.68034 | 9.14031 | 1313 ft | 3 kts | 101° |
| 2026-05-05 15:56 | 47.68035 | 9.14031 | 1313 ft | 0 kts | 86° |
| 2026-05-05 15:56 | 47.68036 | 9.14034 | 1313 ft | 4 kts | 30° |
| 2026-05-05 15:57 | 47.68115 | 9.13869 | 1317 ft | 35 kts | 303° |
| 2026-05-05 15:57 | 47.68230 | 9.13591 | 1313 ft | 17 kts | 311° |
| 2026-05-05 15:57 | 47.68271 | 9.13473 | 1311 ft | 11 kts | 252° |
| 2026-05-05 15:57 | 47.68243 | 9.13485 | 1312 ft | 7 kts | 64° |
| 2026-05-05 15:58 | 47.68247 | 9.13492 | 1311 ft | 0 kts | 47° |